Gaston, Indiana
Current Conditions -  °F | °C
As of 11:30 PM on Sunday 25 Jan 2015 (Local Time) from KMIE Reporting Station
Light Snow Light Snow  
Wind Chill:   Ceiling: 3400
Heat Index: 20°   Visibility: 3mi
Dew Point: 16°   Wind: 18mph
Humidity: 85%   Direction: 50°NE
Pressure: 29.84"   Gusts: 26mph
Location:  40.31°N, 85.5°W
Report Text: KMIE 260430Z AUTO 05016G23KT 3SM -SN BR FEW013 BKN034 OVC050 M07/M09 A2984 RMK AO2 P0000 T10671089
Loading
Personal Weather Stations






























Interactive Weather Map New forecast layout! Learn more

10-Day Weather Forecast

Advertisements
Track Severe Weather on mobile